^^
Your Local Weather - Clay, NY Station Historical Data
Daily Summary for April 28, 2017 Units:  English    Metric   Both
« Previous Day
Next Day »
Daily Weekly Monthly Yearly Custom
  High: Low: Average:
Temperature: 72.0 °F 54.4 °F 62.2 °F
Dew Point: 62.3 °F 43.1 °F 48.4 °F
Humidity: 91% 36% 62%
Wind Speed: 4.0mph 0.0mph 1.5mph
Wind Gust: 7.0mph - -
Wind- - West
Pressure: 29.98 in 29.69 in -
Precipitation: 0.10 in    
Historical Graphs
 
 
Tabular Data for April 28, 2017
Time Temperature Dew Point Pressure Wind Wind Speed Wind Gust Humidity Rainfall Rate (Hourly) solar
00:00 67.9 °F 62.2 °F 29.69 in Calm   1.0 mph 82% 0.04 in 0 W/m2
00:06 67.7 °F 62.3 °F 29.70 in SW 1.0 mph 2.0 mph 83% 0.04 in 0 W/m2
00:12 66.8 °F 61.5 °F 29.71 in NNW 2.0 mph 4.0 mph 83% 0.07 in 0 W/m2
00:18 65.3 °F 60.0 °F 29.71 in NW 3.0 mph 4.0 mph 83% 0.07 in 0 W/m2
00:24 64.5 °F 59.6 °F 29.72 in NW 2.0 mph 3.0 mph 84% 0.05 in 0 W/m2
00:30 64.0 °F 59.4 °F 29.71 in NW 1.0 mph 1.0 mph 85% 0.11 in 0 W/m2
00:36 63.6 °F 59.3 °F 29.70 in NW 1.0 mph 2.0 mph 86% 0.06 in 0 W/m2
00:42 63.3 °F 59.0 °F 29.71 in NW 1.0 mph 1.0 mph 86% 0.04 in 0 W/m2
00:48 63.1 °F 59.2 °F 29.70 in Calm   2.0 mph 87% 0.00 in 0 W/m2
00:54 63.0 °F 59.1 °F 29.71 in Calm   2.0 mph 87% 0.00 in 0 W/m2
01:00 62.9 °F 59.3 °F 29.72 in Calm     88% 0.00 in 0 W/m2
01:06 62.7 °F 59.4 °F 29.73 in Calm     89% 0.00 in 0 W/m2
01:12 62.7 °F 59.4 °F 29.73 in Calm     89% 0.00 in 0 W/m2
01:18 62.6 °F 59.3 °F 29.73 in Calm     89% 0.00 in 0 W/m2
01:24 62.6 °F 59.3 °F 29.73 in Calm     89% 0.00 in 0 W/m2
01:30 62.5 °F 59.2 °F 29.73 in Calm     89% 0.00 in 0 W/m2
01:36 62.5 °F 59.5 °F 29.74 in Calm     90% 0.00 in 0 W/m2
01:42 62.4 °F 59.4 °F 29.74 in Calm     90% 0.65 in 0 W/m2
01:48 62.3 °F 59.3 °F 29.74 in Calm     90% 0.24 in 0 W/m2
01:54 62.2 °F 59.2 °F 29.74 in Calm     90% 0.09 in 0 W/m2
02:00 62.0 °F 59.0 °F 29.74 in Calm     90% 0.05 in 0 W/m2
02:06 62.0 °F 59.0 °F 29.75 in Calm     90% 0.00 in 0 W/m2
02:12 62.0 °F 59.0 °F 29.75 in Calm     90% 0.00 in 0 W/m2
02:18 61.9 °F 58.9 °F 29.75 in Calm     90% 0.00 in 0 W/m2
02:24 61.9 °F 58.9 °F 29.76 in Calm     90% 0.00 in 0 W/m2
02:30 61.9 °F 59.2 °F 29.77 in Calm     91% 0.00 in 0 W/m2
02:36 61.9 °F 59.2 °F 29.77 in Calm     91% 0.00 in 0 W/m2
02:42 61.7 °F 58.7 °F 29.77 in WSW 1.0 mph 3.0 mph 90% 0.00 in 0 W/m2
02:48 61.3 °F 58.3 °F 29.77 in NW 1.0 mph 3.0 mph 90% 0.00 in 0 W/m2
02:54 60.9 °F 57.3 °F 29.78 in NW 1.0 mph 4.0 mph 88% 0.00 in 0 W/m2
03:00 60.7 °F 57.1 °F 29.78 in NW 1.0 mph 1.0 mph 88% 0.00 in 0 W/m2
03:06 60.6 °F 57.0 °F 29.79 in Calm   1.0 mph 88% 0.00 in 0 W/m2
03:18 60.2 °F 56.0 °F 29.80 in West 1.0 mph 3.0 mph 86% 0.00 in 0 W/m2
03:24 60.1 °F 55.9 °F 29.80 in West 2.0 mph 2.0 mph 86% 0.00 in 0 W/m2
03:29 60.0 °F 55.5 °F 29.80 in WSW 1.0 mph 3.0 mph 85% 0.00 in 0 W/m2
03:36 59.8 °F 55.0 °F 29.80 in WNW 1.0 mph 3.0 mph 84% 0.00 in 0 W/m2
03:42 59.6 °F 52.4 °F 29.81 in WSW 3.0 mph 7.0 mph 77% 0.00 in 0 W/m2
03:48 59.4 °F 51.5 °F 29.81 in West 3.0 mph 7.0 mph 75% 0.00 in 0 W/m2
03:54 59.2 °F 50.5 °F 29.81 in West 4.0 mph 4.0 mph 73% 0.00 in 0 W/m2
04:00 58.9 °F 50.3 °F 29.82 in WNW 3.0 mph 3.0 mph 73% 0.00 in 0 W/m2
04:06 58.5 °F 50.2 °F 29.82 in NW 2.0 mph 3.0 mph 74% 0.00 in 0 W/m2
04:12 58.2 °F 50.0 °F 29.82 in SW 1.0 mph 1.0 mph 74% 0.00 in 0 W/m2
04:18 57.8 °F 49.2 °F 29.83 in West 1.0 mph 6.0 mph 73% 0.00 in 0 W/m2
04:24 57.8 °F 48.1 °F 29.83 in West 3.0 mph 3.0 mph 70% 0.00 in 0 W/m2
04:30 57.5 °F 47.8 °F 29.83 in WNW 3.0 mph 3.0 mph 70% 0.00 in 0 W/m2
04:36 57.3 °F 47.6 °F 29.83 in WNW 2.0 mph 3.0 mph 70% 0.00 in 0 W/m2
04:42 56.9 °F 47.6 °F 29.83 in SW 1.0 mph 1.0 mph 71% 0.00 in 0 W/m2
04:48 56.8 °F 47.1 °F 29.83 in West 2.0 mph 2.0 mph 70% 0.00 in 0 W/m2
04:54 56.6 °F 46.5 °F 29.83 in WNW 2.0 mph 5.0 mph 69% 0.00 in 0 W/m2
05:00 56.5 °F 46.4 °F 29.84 in WNW 3.0 mph 3.0 mph 69% 0.00 in 0 W/m2
05:06 56.5 °F 46.1 °F 29.85 in WSW 3.0 mph 4.0 mph 68% 0.00 in 0 W/m2
05:12 56.2 °F 46.2 °F 29.85 in SW 3.0 mph 3.0 mph 69% 0.00 in 0 W/m2
05:18 56.0 °F 46.4 °F 29.85 in WSW 2.0 mph 3.0 mph 70% 0.00 in 0 W/m2
05:24 55.9 °F 46.3 °F 29.85 in SSW 2.0 mph 4.0 mph 70% 0.00 in 0 W/m2
05:30 55.9 °F 46.3 °F 29.86 in NW 2.0 mph 3.0 mph 70% 0.00 in 0 W/m2
05:36 55.9 °F 45.9 °F 29.87 in West 2.0 mph 3.0 mph 69% 0.00 in 0 W/m2
05:42 56.0 °F 45.6 °F 29.87 in WNW 2.0 mph 4.0 mph 68% 0.00 in 0 W/m2
05:48 55.8 °F 45.4 °F 29.88 in SW 2.0 mph 4.0 mph 68% 0.00 in 0 W/m2
05:54 55.5 °F 45.5 °F 29.88 in WNW 2.0 mph 4.0 mph 69% 0.00 in 0 W/m2
06:00 55.3 °F 45.3 °F 29.88 in SW 3.0 mph 3.0 mph 69% 0.00 in 0 W/m2
06:06 55.1 °F 45.1 °F 29.88 in West 3.0 mph 4.0 mph 69% 0.00 in 0 W/m2
06:12 54.9 °F 44.9 °F 29.89 in WSW 2.0 mph 5.0 mph 69% 0.00 in 5 W/m2
06:18 54.8 °F 44.8 °F 29.89 in SW 2.0 mph 5.0 mph 69% 0.00 in 9 W/m2
06:24 54.6 °F 45.0 °F 29.90 in West 2.0 mph 2.0 mph 70% 0.00 in 11 W/m2
06:30 54.4 °F 44.8 °F 29.90 in WSW 1.0 mph 1.0 mph 70% 0.00 in 12 W/m2
06:35 54.4 °F 44.4 °F 29.90 in West 2.0 mph 6.0 mph 69% 0.00 in 21 W/m2
06:42 54.4 °F 44.4 °F 29.91 in West 2.0 mph 2.0 mph 69% 0.00 in 32 W/m2
06:48 54.5 °F 44.5 °F 29.91 in WSW 1.0 mph 2.0 mph 69% 0.00 in 60 W/m2
06:54 54.6 °F 44.6 °F 29.91 in Calm   1.0 mph 69% 0.00 in 91 W/m2
07:00 55.0 °F 45.4 °F 29.91 in Calm     70% 0.00 in 132 W/m2
07:05 55.3 °F 44.9 °F 29.92 in WNW 1.0 mph 1.0 mph 68% 0.00 in 148 W/m2
07:12 55.6 °F 45.2 °F 29.92 in WSW 1.0 mph 2.0 mph 68% 0.00 in 163 W/m2
07:18 56.0 °F 45.6 °F 29.92 in Calm   3.0 mph 68% 0.00 in 183 W/m2
07:24 56.2 °F 45.8 °F 29.92 in Calm   1.0 mph 68% 0.00 in 200 W/m2
07:36 56.4 °F 45.2 °F 29.93 in WSW 2.0 mph 4.0 mph 66% 0.00 in 237 W/m2
07:42 56.7 °F 45.5 °F 29.93 in West 2.0 mph 2.0 mph 66% 0.00 in 255 W/m2
07:48 56.8 °F 45.6 °F 29.93 in West 2.0 mph 4.0 mph 66% 0.00 in 272 W/m2
07:54 57.0 °F 44.9 °F 29.93 in WSW 2.0 mph 5.0 mph 64% 0.00 in 290 W/m2
08:00 57.1 °F 45.0 °F 29.93 in WSW 2.0 mph 2.0 mph 64% 0.00 in 264 W/m2
08:06 57.2 °F 44.7 °F 29.93 in West 2.0 mph 6.0 mph 63% 0.00 in 323 W/m2
08:12 57.4 °F 45.3 °F 29.93 in NNW 2.0 mph 3.0 mph 64% 0.00 in 348 W/m2
08:18 57.5 °F 44.6 °F 29.94 in SW 2.0 mph 6.0 mph 62% 0.00 in 346 W/m2
08:24 57.7 °F 45.2 °F 29.94 in NW 2.0 mph 4.0 mph 63% 0.00 in 348 W/m2
08:30 57.8 °F 44.4 °F 29.94 in SW 2.0 mph 2.0 mph 61% 0.00 in 376 W/m2
08:36 58.0 °F 44.6 °F 29.94 in WSW 3.0 mph 3.0 mph 61% 0.00 in 369 W/m2
08:42 58.0 °F 44.6 °F 29.95 in WNW 3.0 mph 4.0 mph 61% 0.00 in 445 W/m2
08:48 58.2 °F 44.4 °F 29.96 in WNW 3.0 mph 6.0 mph 60% 0.00 in 450 W/m2
08:54 58.2 °F 44.4 °F 29.96 in WSW 3.0 mph 4.0 mph 60% 0.00 in 464 W/m2
09:00 58.4 °F 45.0 °F 29.97 in NW 2.0 mph 4.0 mph 61% 0.00 in 501 W/m2
09:06 58.9 °F 45.0 °F 29.97 in WSW 2.0 mph 6.0 mph 60% 0.00 in 520 W/m2
09:12 59.3 °F 45.0 °F 29.97 in WNW 2.0 mph 2.0 mph 59% 0.00 in 520 W/m2
09:18 59.1 °F 44.3 °F 29.97 in NNW 3.0 mph 3.0 mph 58% 0.00 in 515 W/m2
09:24 59.2 °F 44.9 °F 29.98 in SW 3.0 mph 6.0 mph 59% 0.00 in 571 W/m2
09:29 59.5 °F 45.2 °F 29.98 in WSW 3.0 mph 3.0 mph 59% 0.00 in 420 W/m2
09:36 59.5 °F 44.7 °F 29.98 in WSW 3.0 mph 3.0 mph 58% 0.00 in 529 W/m2
09:42 59.4 °F 44.6 °F 29.98 in WNW 2.0 mph 3.0 mph 58% 0.00 in 606 W/m2
09:48 59.8 °F 44.1 °F 29.98 in NW 3.0 mph 5.0 mph 56% 0.00 in 670 W/m2
09:54 60.3 °F 45.0 °F 29.98 in SW 3.0 mph 6.0 mph 57% 0.00 in 661 W/m2
10:00 60.6 °F 46.2 °F 29.98 in NW 2.0 mph 2.0 mph 59% 0.00 in 679 W/m2
10:06 60.9 °F 45.6 °F 29.98 in WNW 2.0 mph 3.0 mph 57% 0.00 in 652 W/m2
10:12 60.9 °F 45.1 °F 29.98 in SW 2.0 mph 5.0 mph 56% 0.00 in 728 W/m2
10:18 61.2 °F 44.4 °F 29.98 in West 2.0 mph 5.0 mph 54% 0.00 in 705 W/m2
10:23 61.2 °F 44.9 °F 29.97 in NW 2.0 mph 3.0 mph 55% 0.00 in 745 W/m2
10:30 61.8 °F 45.0 °F 29.98 in SW 1.0 mph 1.0 mph 54% 0.00 in 761 W/m2
10:36 61.3 °F 44.5 °F 29.97 in WSW 2.0 mph 3.0 mph 54% 0.00 in 779 W/m2
10:42 61.3 °F 45.9 °F 29.97 in NW 3.0 mph 3.0 mph 57% 0.00 in 789 W/m2
10:48 61.8 °F 46.4 °F 29.97 in WNW 2.0 mph 3.0 mph 57% 0.00 in 803 W/m2
10:54 61.8 °F 44.5 °F 29.97 in NNW 2.0 mph 4.0 mph 53% 0.00 in 812 W/m2
11:00 61.7 °F 45.8 °F 29.98 in SW 3.0 mph 3.0 mph 56% 0.00 in 824 W/m2
11:06 62.2 °F 44.9 °F 29.98 in SW 2.0 mph 6.0 mph 53% 0.00 in 840 W/m2
11:12 62.8 °F 46.4 °F 29.97 in NW 2.0 mph 4.0 mph 55% 0.00 in 846 W/m2
11:18 63.3 °F 45.9 °F 29.97 in West 2.0 mph 4.0 mph 53% 0.00 in 842 W/m2
11:24 62.5 °F 45.1 °F 29.97 in WSW 3.0 mph 3.0 mph 53% 0.00 in 863 W/m2
11:30 63.6 °F 45.6 °F 29.98 in WSW 2.0 mph 4.0 mph 52% 0.00 in 872 W/m2
11:36 62.7 °F 44.8 °F 29.97 in SSW 2.0 mph 5.0 mph 52% 0.00 in 875 W/m2
11:42 62.8 °F 44.4 °F 29.97 in West 3.0 mph 3.0 mph 51% 0.00 in 881 W/m2
11:48 63.6 °F 48.1 °F 29.97 in WSW 2.0 mph 5.0 mph 57% 0.00 in 886 W/m2
11:54 63.6 °F 44.6 °F 29.97 in WSW 3.0 mph 5.0 mph 50% 0.00 in 893 W/m2
12:00 64.4 °F 44.8 °F 29.97 in SW 2.0 mph 5.0 mph 49% 0.00 in 898 W/m2
12:06 64.5 °F 44.4 °F 29.96 in WNW 3.0 mph 5.0 mph 48% 0.00 in 905 W/m2
12:12 65.2 °F 46.1 °F 29.96 in NW 2.0 mph 3.0 mph 50% 0.00 in 933 W/m2
12:18 63.9 °F 43.8 °F 29.96 in SW 2.0 mph 3.0 mph 48% 0.00 in 745 W/m2
12:24 63.9 °F 46.4 °F 29.96 in NW 1.0 mph 3.0 mph 53% 0.00 in 939 W/m2
12:30 65.2 °F 46.6 °F 29.96 in NW 1.0 mph 3.0 mph 51% 0.00 in 921 W/m2
12:36 65.4 °F 44.1 °F 29.96 in Calm   3.0 mph 46% 0.00 in 918 W/m2
12:42 65.8 °F 43.9 °F 29.96 in WSW 1.0 mph 2.0 mph 45% 0.00 in 925 W/m2
12:48 65.9 °F 44.5 °F 29.95 in WSW 2.0 mph 3.0 mph 46% 0.00 in 928 W/m2
12:54 66.4 °F 45.0 °F 29.95 in WSW 2.0 mph 6.0 mph 46% 0.00 in 935 W/m2
12:59 66.2 °F 45.4 °F 29.95 in WNW 2.0 mph 6.0 mph 47% 0.00 in 976 W/m2
13:06 65.9 °F 43.9 °F 29.95 in South 2.0 mph 6.0 mph 45% 0.00 in 735 W/m2
13:12 66.1 °F 44.1 °F 29.95 in WSW 2.0 mph 5.0 mph 45% 0.00 in 809 W/m2
13:18 66.5 °F 45.1 °F 29.95 in WNW 2.0 mph 5.0 mph 46% 0.00 in 1018 W/m2
13:23 65.8 °F 43.3 °F 29.95 in NW 1.0 mph 5.0 mph 44% 0.00 in 306 W/m2
13:30 65.8 °F 43.9 °F 29.96 in West 2.0 mph 2.0 mph 45% 0.00 in 371 W/m2
13:36 66.1 °F 44.7 °F 29.96 in WSW 1.0 mph 2.0 mph 46% 0.00 in 320 W/m2
13:42 65.7 °F 43.2 °F 29.96 in WSW 2.0 mph 2.0 mph 44% 0.00 in 327 W/m2
13:48 66.5 °F 47.8 °F 29.95 in NW 2.0 mph 3.0 mph 51% 0.00 in 1041 W/m2
13:54 67.0 °F 46.1 °F 29.94 in NE 2.0 mph 2.0 mph 47% 0.00 in 954 W/m2
14:00 66.6 °F 44.0 °F 29.95 in WSW 2.0 mph 2.0 mph 44% 0.00 in 448 W/m2
14:06 66.7 °F 44.1 °F 29.96 in WSW 1.0 mph 3.0 mph 44% 0.00 in 754 W/m2
14:12 67.9 °F 47.5 °F 29.95 in NNW 1.0 mph 5.0 mph 48% 0.00 in 939 W/m2
14:18 68.9 °F 46.1 °F 29.96 in NW 2.0 mph 5.0 mph 44% 0.00 in 1034 W/m2
14:24 69.1 °F 46.9 °F 29.96 in WNW 2.0 mph 3.0 mph 45% 0.00 in 830 W/m2
14:30 70.0 °F 48.3 °F 29.96 in WNW 1.0 mph 1.0 mph 46% 0.00 in 1034 W/m2
14:36 69.8 °F 48.7 °F 29.96 in West 2.0 mph 2.0 mph 47% 0.00 in 666 W/m2
14:42 68.7 °F 46.5 °F 29.96 in NNW 2.0 mph 2.0 mph 45% 0.00 in 283 W/m2
14:48 69.3 °F 48.8 °F 29.96 in WNW 2.0 mph 4.0 mph 48% 0.00 in 768 W/m2
14:54 69.6 °F 44.2 °F 29.95 in West 1.0 mph 2.0 mph 40% 0.00 in 636 W/m2
15:00 70.1 °F 45.9 °F 29.95 in North 1.0 mph 3.0 mph 42% 0.00 in 724 W/m2
15:06 69.6 °F 46.7 °F 29.95 in WNW 2.0 mph 3.0 mph 44% 0.00 in 471 W/m2
15:12 69.1 °F 43.8 °F 29.95 in WSW 1.0 mph 2.0 mph 40% 0.00 in 673 W/m2
15:18 69.6 °F 43.5 °F 29.95 in North 2.0 mph 4.0 mph 39% 0.00 in 445 W/m2
15:24 69.5 °F 48.4 °F 29.95 in North 1.0 mph 2.0 mph 47% 0.00 in 548 W/m2
15:30 69.9 °F 44.5 °F 29.94 in WSW 2.0 mph 2.0 mph 40% 0.00 in 501 W/m2
15:36 70.7 °F 46.5 °F 29.94 in WSW 2.0 mph 2.0 mph 42% 0.00 in 533 W/m2
15:42 69.7 °F 47.4 °F 29.94 in NW 2.0 mph 3.0 mph 45% 0.00 in 399 W/m2
15:48 70.5 °F 49.9 °F 29.94 in NW 1.0 mph 3.0 mph 48% 0.00 in 608 W/m2
15:54 71.4 °F 47.7 °F 29.94 in NW 1.0 mph 3.0 mph 43% 0.00 in 568 W/m2
16:00 71.2 °F 45.0 °F 29.93 in NW 1.0 mph 1.0 mph 39% 0.00 in 397 W/m2
16:06 70.9 °F 45.4 °F 29.93 in WSW 1.0 mph 2.0 mph 40% 0.00 in 499 W/m2
16:12 71.5 °F 44.5 °F 29.93 in West 1.0 mph 1.0 mph 38% 0.00 in 439 W/m2
16:18 71.8 °F 46.8 °F 29.93 in WSW 1.0 mph 2.0 mph 41% 0.00 in 394 W/m2
16:24 71.5 °F 43.1 °F 29.94 in WSW 1.0 mph 3.0 mph 36% 0.00 in 285 W/m2
16:29 71.2 °F 45.0 °F 29.94 in NNW 2.0 mph 2.0 mph 39% 0.00 in 297 W/m2
16:36 71.0 °F 46.7 °F 29.93 in NW 1.0 mph 4.0 mph 42% 0.00 in 299 W/m2
16:42 70.9 °F 46.0 °F 29.93 in NW 1.0 mph 1.0 mph 41% 0.00 in 408 W/m2
16:48 71.3 °F 46.4 °F 29.93 in WNW 1.0 mph 4.0 mph 41% 0.00 in 364 W/m2
16:53 71.7 °F 44.0 °F 29.92 in West 1.0 mph 2.0 mph 37% 0.00 in 432 W/m2
17:00 71.8 °F 45.5 °F 29.92 in SW 1.0 mph 3.0 mph 39% 0.00 in 387 W/m2
17:06 72.0 °F 46.3 °F 29.92 in South 2.0 mph 3.0 mph 40% 0.00 in 476 W/m2
17:12 71.7 °F 48.0 °F 29.92 in NNW 2.0 mph 5.0 mph 43% 0.00 in 533 W/m2
17:18 70.6 °F 47.0 °F 29.92 in NNW 3.0 mph 6.0 mph 43% 0.00 in 424 W/m2
17:23 70.4 °F 49.2 °F 29.93 in NNW 4.0 mph 5.0 mph 47% 0.00 in 445 W/m2
17:30 70.1 °F 47.2 °F 29.93 in North 3.0 mph 3.0 mph 44% 0.00 in 209 W/m2
17:36 70.2 °F 47.9 °F 29.93 in NNW 3.0 mph 5.0 mph 45% 0.00 in 267 W/m2
17:42 70.1 °F 47.8 °F 29.93 in NW 2.0 mph 4.0 mph 45% 0.00 in 172 W/m2
17:48 69.9 °F 48.2 °F 29.93 in NNW 2.0 mph 4.0 mph 46% 0.00 in 155 W/m2
17:54 69.9 °F 47.6 °F 29.93 in NNW 2.0 mph 2.0 mph 45% 0.00 in 125 W/m2
18:00 69.6 °F 48.5 °F 29.93 in NNW 2.0 mph 3.0 mph 47% 0.00 in 111 W/m2
18:05 68.8 °F 48.3 °F 29.93 in North 3.0 mph 7.0 mph 48% 0.00 in 151 W/m2
18:12 68.3 °F 47.8 °F 29.93 in NW 3.0 mph 6.0 mph 48% 0.00 in 135 W/m2
18:18 68.0 °F 48.1 °F 29.93 in NNE 4.0 mph 6.0 mph 49% 0.00 in 113 W/m2
18:24 67.8 °F 48.5 °F 29.94 in North 4.0 mph 6.0 mph 50% 0.00 in 95 W/m2
18:30 67.1 °F 47.8 °F 29.94 in NNE 4.0 mph 4.0 mph 50% 0.00 in 67 W/m2
18:36 66.1 °F 47.4 °F 29.94 in NNW 4.0 mph 7.0 mph 51% 0.00 in 67 W/m2
18:42 65.4 °F 47.8 °F 29.95 in NNW 4.0 mph 5.0 mph 53% 0.00 in 88 W/m2
18:48 65.0 °F 47.4 °F 29.95 in North 4.0 mph 5.0 mph 53% 0.00 in 63 W/m2
18:54 64.8 °F 47.3 °F 29.95 in NNW 3.0 mph 4.0 mph 53% 0.00 in 67 W/m2
19:00 64.6 °F 47.1 °F 29.95 in North 2.0 mph 2.0 mph 53% 0.00 in 62 W/m2
19:06 64.3 °F 46.8 °F 29.95 in North 2.0 mph 5.0 mph 53% 0.00 in 37 W/m2
19:12 64.1 °F 47.1 °F 29.95 in NNW 3.0 mph 4.0 mph 54% 0.00 in 26 W/m2
19:18 63.8 °F 47.3 °F 29.95 in North 2.0 mph 4.0 mph 55% 0.00 in 19 W/m2
19:24 63.6 °F 47.1 °F 29.95 in North 1.0 mph 2.0 mph 55% 0.00 in 19 W/m2
19:30 63.4 °F 46.5 °F 29.95 in North 1.0 mph 3.0 mph 54% 0.00 in 16 W/m2
19:36 63.2 °F 47.2 °F 29.96 in North 1.0 mph 3.0 mph 56% 0.00 in 12 W/m2
19:42 63.0 °F 47.1 °F 29.95 in North 1.0 mph 1.0 mph 56% 0.00 in 11 W/m2
19:48 62.6 °F 47.6 °F 29.96 in North 1.0 mph 3.0 mph 58% 0.00 in 9 W/m2
19:54 62.3 °F 47.3 °F 29.95 in North 1.0 mph 2.0 mph 58% 0.00 in 5 W/m2
20:00 62.2 °F 47.2 °F 29.95 in Calm     58% 0.00 in 0 W/m2
20:06 62.0 °F 47.5 °F 29.95 in Calm     59% 0.00 in 0 W/m2
20:12 61.8 °F 47.3 °F 29.95 in Calm     59% 0.00 in 0 W/m2
20:18 61.5 °F 47.5 °F 29.95 in Calm   1.0 mph 60% 0.00 in 0 W/m2
20:24 61.4 °F 47.8 °F 29.95 in Calm     61% 0.00 in 0 W/m2
20:30 61.2 °F 47.6 °F 29.96 in Calm     61% 0.00 in 0 W/m2
20:36 61.1 °F 47.1 °F 29.95 in Calm     60% 0.00 in 0 W/m2
20:42 60.8 °F 47.3 °F 29.96 in Calm     61% 0.00 in 0 W/m2
20:48 60.7 °F 47.2 °F 29.96 in Calm     61% 0.00 in 0 W/m2
20:53 60.5 °F 47.4 °F 29.96 in Calm     62% 0.00 in 0 W/m2
21:00 60.3 °F 47.2 °F 29.96 in Calm     62% 0.00 in 0 W/m2
21:06 60.1 °F 47.5 °F 29.96 in Calm     63% 0.00 in 0 W/m2
21:12 59.8 °F 47.6 °F 29.95 in Calm     64% 0.00 in 0 W/m2
21:18 59.4 °F 47.6 °F 29.96 in Calm     65% 0.00 in 0 W/m2
21:24 59.2 °F 47.4 °F 29.95 in Calm     65% 0.00 in 0 W/m2
21:30 58.8 °F 47.5 °F 29.96 in Calm     66% 0.00 in 0 W/m2
21:36 58.4 °F 47.5 °F 29.96 in Calm     67% 0.00 in 0 W/m2
21:42 57.6 °F 47.5 °F 29.96 in Calm     69% 0.00 in 0 W/m2
21:48 57.3 °F 47.6 °F 29.96 in Calm     70% 0.00 in 0 W/m2
21:54 57.2 °F 47.5 °F 29.96 in Calm     70% 0.00 in 0 W/m2
22:00 57.1 °F 47.8 °F 29.96 in Calm     71% 0.00 in 0 W/m2
22:06 57.3 °F 48.3 °F 29.96 in Calm     72% 0.00 in 0 W/m2
22:12 57.4 °F 48.4 °F 29.96 in Calm   1.0 mph 72% 0.00 in 0 W/m2
22:18 57.6 °F 49.0 °F 29.96 in Calm   2.0 mph 73% 0.00 in 0 W/m2
22:24 57.7 °F 49.5 °F 29.96 in Calm   1.0 mph 74% 0.00 in 0 W/m2
22:30 57.7 °F 49.1 °F 29.96 in NE 1.0 mph 2.0 mph 73% 0.00 in 0 W/m2
22:36 57.8 °F 49.2 °F 29.96 in NE 1.0 mph 2.0 mph 73% 0.00 in 0 W/m2
22:42 57.9 °F 49.7 °F 29.95 in Calm     74% 0.00 in 0 W/m2
22:48 57.9 °F 49.7 °F 29.95 in Calm   1.0 mph 74% 0.00 in 0 W/m2
22:54 57.9 °F 49.7 °F 29.95 in Calm     74% 0.00 in 0 W/m2
22:59 57.9 °F 49.3 °F 29.95 in Calm     73% 0.00 in 0 W/m2
23:06 57.8 °F 49.2 °F 29.96 in Calm     73% 0.00 in 0 W/m2
23:12 57.9 °F 49.7 °F 29.95 in Calm   2.0 mph 74% 0.00 in 0 W/m2
23:18 57.9 °F 49.3 °F 29.97 in Calm   2.0 mph 73% 0.00 in 0 W/m2
23:24 57.8 °F 49.6 °F 29.95 in Calm     74% 0.00 in 0 W/m2
23:30 57.7 °F 49.8 °F 29.95 in Calm     75% 0.00 in 0 W/m2
23:36 57.5 °F 49.3 °F 29.94 in Calm   1.0 mph 74% 0.00 in 0 W/m2
23:42 57.3 °F 49.4 °F 29.93 in Calm     75% 0.00 in 0 W/m2
23:48 57.1 °F 50.0 °F 29.93 in Calm     77% 0.00 in 0 W/m2
23:54 57.0 °F 50.2 °F 29.93 in Calm   1.0 mph 78% 0.00 in 0 W/m2
Country Meadow, Clay, NY, USA
Compliments of Weather Underground - 2 mb